createdAt,value
2022-08-17T00:00:05.699Z,22.30
2022-08-17T00:02:32.738Z,22.30
2022-08-17T00:05:05.517Z,22.20
2022-08-17T00:07:32.363Z,22.20
2022-08-17T00:09:59.201Z,22.20
2022-08-17T00:12:42.703Z,22.10
2022-08-17T00:15:13.332Z,22.10
2022-08-17T00:17:42.392Z,22.10
2022-08-17T00:20:12.049Z,22.00
2022-08-17T00:22:39.001Z,22.00
2022-08-17T00:25:12.974Z,22.00
2022-08-17T00:27:40.427Z,22.00
2022-08-17T00:30:12.199Z,21.90
2022-08-17T00:33:11.677Z,21.90
2022-08-17T00:35:34.836Z,21.80
2022-08-17T00:38:02.033Z,21.80
2022-08-17T00:40:44.191Z,21.80
2022-08-17T00:43:20.883Z,21.80
2022-08-17T00:45:49.027Z,21.80
2022-08-17T00:48:29.253Z,21.70
2022-08-17T00:51:31.011Z,21.70
2022-08-17T00:54:23.949Z,21.70
2022-08-17T00:57:21.570Z,21.70
2022-08-17T01:00:05.157Z,21.60
2022-08-17T01:02:42.467Z,21.60
2022-08-17T01:05:18.859Z,21.50
2022-08-17T01:07:48.322Z,21.50
2022-08-17T01:10:59.967Z,21.50
2022-08-17T01:13:05.762Z,21.50
2022-08-17T01:15:37.134Z,21.50
2022-08-17T01:18:09.566Z,21.40
2022-08-17T01:21:03.161Z,21.40
2022-08-17T01:23:30.920Z,21.40
2022-08-17T01:26:01.831Z,21.40
2022-08-17T01:28:36.499Z,21.30
2022-08-17T01:31:19.126Z,21.40
2022-08-17T01:33:46.018Z,21.30
2022-08-17T01:36:13.321Z,21.20
2022-08-17T01:38:40.354Z,21.20
2022-08-17T01:41:13.715Z,21.20
2022-08-17T01:43:59.520Z,21.20
2022-08-17T01:46:32.065Z,21.10
2022-08-17T01:48:59.768Z,21.10
2022-08-17T01:51:32.739Z,21.10
2022-08-17T01:54:05.924Z,21.00
2022-08-17T01:56:39.890Z,21.00
2022-08-17T01:59:18.265Z,21.00
2022-08-17T02:01:46.320Z,21.00
2022-08-17T02:04:14.191Z,21.00
2022-08-17T02:06:53.745Z,20.90
2022-08-17T02:09:25.478Z,20.90
2022-08-17T02:11:56.302Z,20.90
2022-08-17T02:14:25.089Z,20.90
2022-08-17T02:16:53.764Z,20.90
2022-08-17T02:19:21.842Z,20.90
2022-08-17T02:21:53.748Z,20.80
2022-08-17T02:24:59.843Z,20.80
2022-08-17T02:27:19.188Z,20.80
2022-08-17T02:29:46.064Z,20.80
2022-08-17T02:32:27.832Z,20.70
2022-08-17T02:34:57.463Z,20.70
2022-08-17T02:37:26.736Z,20.70
2022-08-17T02:39:54.432Z,20.60
2022-08-17T02:42:28.943Z,20.60
2022-08-17T02:44:55.871Z,20.60
2022-08-17T02:47:23.832Z,20.60
2022-08-17T02:49:55.391Z,20.50
2022-08-17T02:53:01.423Z,20.50
2022-08-17T02:55:26.459Z,20.50
2022-08-17T02:57:53.834Z,20.50
2022-08-17T03:00:34.208Z,20.50
2022-08-17T03:03:05.912Z,20.50
2022-08-17T03:05:36.025Z,20.40
2022-08-17T03:08:05.169Z,20.40
2022-08-17T03:10:32.405Z,20.40
2022-08-17T03:12:59.849Z,20.40
2022-08-17T03:15:31.715Z,20.30
2022-08-17T03:18:00.279Z,20.30
2022-08-17T03:20:30.928Z,20.30
2022-08-17T03:23:02.045Z,20.30
2022-08-17T03:25:35.182Z,20.30
2022-08-17T03:28:03.241Z,20.30
2022-08-17T03:30:31.019Z,20.30
2022-08-17T03:33:01.441Z,20.20
2022-08-17T03:35:34.873Z,20.20
2022-08-17T03:38:01.984Z,20.20
2022-08-17T03:40:39.912Z,20.20
2022-08-17T03:43:19.504Z,20.20
2022-08-17T03:46:05.832Z,20.20
2022-08-17T03:48:56.458Z,20.20
2022-08-17T03:51:43.307Z,20.20
2022-08-17T03:54:29.270Z,20.20
2022-08-17T03:57:14.198Z,20.10
2022-08-17T03:59:41.183Z,20.20
2022-08-17T04:02:32.569Z,20.10
2022-08-17T04:05:00.255Z,20.10
2022-08-17T04:07:30.596Z,20.10
2022-08-17T04:09:58.175Z,20.10
2022-08-17T04:12:30.866Z,20.10
2022-08-17T04:14:58.608Z,20.10
2022-08-17T04:17:28.628Z,20.00
2022-08-17T04:19:56.446Z,20.00
2022-08-17T04:22:32.479Z,20.00
2022-08-17T04:25:24.944Z,20.00
2022-08-17T04:27:52.120Z,20.00
2022-08-17T04:30:19.235Z,20.00
2022-08-17T04:33:04.099Z,20.00
2022-08-17T04:35:41.124Z,20.00
2022-08-17T04:38:12.091Z,20.00
2022-08-17T04:41:08.417Z,20.00
2022-08-17T04:43:37.587Z,20.10
2022-08-17T04:46:09.515Z,20.10
2022-08-17T04:48:40.780Z,20.10
2022-08-17T04:51:18.209Z,20.10
2022-08-17T04:53:54.489Z,20.20
2022-08-17T04:56:23.973Z,20.20
2022-08-17T04:58:55.345Z,20.20
2022-08-17T05:01:25.695Z,20.30
2022-08-17T05:03:56.313Z,20.40
2022-08-17T05:06:24.006Z,20.40
2022-08-17T05:08:51.069Z,20.40
2022-08-17T05:11:18.242Z,20.40
2022-08-17T05:13:45.777Z,20.50
2022-08-17T05:16:12.927Z,20.50
2022-08-17T05:18:39.867Z,20.60
2022-08-17T05:21:07.995Z,20.60
2022-08-17T05:23:42.459Z,20.70
2022-08-17T05:26:24.752Z,20.80
2022-08-17T05:28:59.815Z,20.80
2022-08-17T05:31:30.777Z,20.80
2022-08-17T05:33:58.535Z,20.90
2022-08-17T05:36:38.095Z,21.00
2022-08-17T05:39:15.609Z,21.10
2022-08-17T05:41:44.031Z,21.10
2022-08-17T05:44:11.036Z,21.20
2022-08-17T05:46:45.609Z,21.30
2022-08-17T05:49:16.080Z,21.40
2022-08-17T05:52:28.576Z,21.40
2022-08-17T05:55:20.586Z,21.50
2022-08-17T05:58:32.484Z,21.70
2022-08-17T06:01:27.491Z,21.80
2022-08-17T06:04:10.786Z,21.90
2022-08-17T06:06:53.436Z,22.00
2022-08-17T06:09:39.602Z,22.10
2022-08-17T06:12:43.707Z,22.20
2022-08-17T06:15:26.838Z,22.40
2022-08-17T06:18:01.828Z,22.50
2022-08-17T06:20:52.317Z,22.60
2022-08-17T06:23:37.832Z,22.80
2022-08-17T06:26:16.003Z,23.00
2022-08-17T06:29:02.701Z,23.10
2022-08-17T06:31:36.763Z,23.20
2022-08-17T06:34:08.125Z,23.40
2022-08-17T06:36:34.988Z,23.60
2022-08-17T06:39:32.309Z,23.70
2022-08-17T06:43:02.190Z,23.90
2022-08-17T06:45:20.235Z,24.10
2022-08-17T06:48:09.497Z,24.30
2022-08-17T06:51:07.162Z,24.40
2022-08-17T06:53:48.689Z,24.50
2022-08-17T06:56:52.964Z,24.70
2022-08-17T06:59:53.026Z,24.80
2022-08-17T07:02:53.116Z,25.00
2022-08-17T07:05:27.539Z,25.20
2022-08-17T07:08:38.101Z,25.40
2022-08-17T07:11:38.441Z,25.60
2022-08-17T07:14:37.686Z,25.80
2022-08-17T07:17:15.469Z,26.00
2022-08-17T07:19:46.054Z,26.20
2022-08-17T07:22:28.409Z,26.30
2022-08-17T07:24:59.620Z,26.50
2022-08-17T07:27:35.689Z,26.60
2022-08-17T07:30:10.553Z,26.80
2022-08-17T07:32:57.930Z,27.00
2022-08-17T07:35:41.461Z,27.10
2022-08-17T07:38:30.043Z,27.20
2022-08-17T07:41:06.138Z,27.40
2022-08-17T07:43:41.940Z,27.60
2022-08-17T07:46:37.793Z,27.70
2022-08-17T07:49:07.506Z,27.90
2022-08-17T07:51:43.327Z,28.10
2022-08-17T07:54:15.867Z,28.20
2022-08-17T07:56:59.036Z,28.40
2022-08-17T08:00:01.442Z,28.50
2022-08-17T08:02:58.956Z,28.60
2022-08-17T08:05:49.766Z,28.80
2022-08-17T08:08:42.267Z,28.80
2022-08-17T08:11:15.547Z,28.90
2022-08-17T08:13:45.706Z,29.00
2022-08-17T08:16:31.663Z,29.10
2022-08-17T08:19:02.373Z,29.30
2022-08-17T08:21:51.245Z,29.40
2022-08-17T08:24:32.792Z,29.60
2022-08-17T08:27:53.785Z,29.90
2022-08-17T08:30:22.633Z,30.30
2022-08-17T08:33:04.119Z,30.80
2022-08-17T08:35:40.372Z,31.30
2022-08-17T08:38:53.525Z,31.90
2022-08-17T08:41:49.682Z,32.60
2022-08-17T08:45:00.503Z,33.30
2022-08-17T08:47:48.598Z,33.90
2022-08-17T08:50:38.007Z,34.60
2022-08-17T08:53:33.239Z,35.10
2022-08-17T08:56:49.701Z,35.60
2022-08-17T08:59:58.182Z,36.20
2022-08-17T09:02:37.205Z,36.70
2022-08-17T09:05:28.681Z,37.10
2022-08-17T09:08:25.467Z,37.40
2022-08-17T09:11:17.800Z,37.80
2022-08-17T09:14:28.666Z,38.20
2022-08-17T09:17:13.798Z,38.60
2022-08-17T09:20:10.860Z,39.00
2022-08-17T09:22:52.688Z,39.40
2022-08-17T09:25:29.200Z,39.80
2022-08-17T09:28:03.560Z,40.10
2022-08-17T09:30:45.511Z,40.50
2022-08-17T09:33:22.791Z,40.70
2022-08-17T09:36:14.171Z,40.90
2022-08-17T09:38:44.090Z,41.20
2022-08-17T09:41:24.878Z,41.50
2022-08-17T09:44:27.972Z,41.70
2022-08-17T09:47:21.907Z,41.90
2022-08-17T09:50:15.440Z,42.10
2022-08-17T09:52:43.313Z,42.30
2022-08-17T09:55:10.225Z,42.50
2022-08-17T09:58:23.508Z,42.60
2022-08-17T10:01:17.942Z,42.70
2022-08-17T10:04:20.361Z,42.80
2022-08-17T10:07:01.008Z,42.90
2022-08-17T10:09:59.793Z,42.90
2022-08-17T10:12:50.464Z,42.80
2022-08-17T10:15:42.723Z,42.80
2022-08-17T10:18:33.178Z,42.90
2022-08-17T10:21:32.878Z,43.10
2022-08-17T10:25:22.962Z,43.10
2022-08-17T10:27:59.755Z,43.20
2022-08-17T10:30:32.782Z,43.40
2022-08-17T10:33:06.239Z,43.40
2022-08-17T10:35:45.067Z,43.30
2022-08-17T10:38:37.439Z,43.10
2022-08-17T10:41:33.176Z,43.00
2022-08-17T10:44:51.034Z,42.80
2022-08-17T10:47:19.445Z,42.80
2022-08-17T10:49:54.165Z,43.00
2022-08-17T10:52:25.963Z,43.10
2022-08-17T10:54:58.788Z,43.10
2022-08-17T10:58:18.152Z,42.80
2022-08-17T11:00:53.964Z,42.50
2022-08-17T11:03:25.204Z,41.90
2022-08-17T11:06:13.989Z,41.50
2022-08-17T11:09:44.562Z,41.00
2022-08-17T11:12:35.577Z,40.90
2022-08-17T11:15:39.506Z,40.90
2022-08-17T11:18:46.977Z,41.00
2022-08-17T11:21:50.320Z,41.10
2022-08-17T11:24:33.374Z,41.10
2022-08-17T11:27:20.722Z,40.90
2022-08-17T11:30:02.713Z,40.70
2022-08-17T11:32:54.829Z,40.40
2022-08-17T11:35:21.971Z,40.00
2022-08-17T11:38:27.823Z,39.60
2022-08-17T11:41:08.852Z,39.20
2022-08-17T11:44:07.760Z,38.80
2022-08-17T11:47:23.584Z,38.50
2022-08-17T11:51:02.463Z,38.20
2022-08-17T11:53:38.155Z,37.90
2022-08-17T11:56:06.584Z,37.60
2022-08-17T11:58:37.869Z,37.40
2022-08-17T12:01:51.883Z,37.10
2022-08-17T12:04:22.676Z,37.00
2022-08-17T12:06:59.729Z,36.70
2022-08-17T12:09:34.449Z,36.50
2022-08-17T12:12:14.602Z,36.20
2022-08-17T12:15:10.117Z,36.10
2022-08-17T12:17:50.266Z,35.90
2022-08-17T12:20:37.156Z,35.80
2022-08-17T12:23:25.666Z,35.70
2022-08-17T12:26:08.239Z,35.60
2022-08-17T12:28:43.680Z,35.50
2022-08-17T12:31:22.627Z,35.40
2022-08-17T12:33:51.744Z,35.40
2022-08-17T12:36:28.150Z,35.50
2022-08-17T12:39:13.094Z,35.50
2022-08-17T12:41:48.209Z,35.60
2022-08-17T12:44:26.705Z,35.70
2022-08-17T12:47:19.454Z,35.70
2022-08-17T12:49:52.585Z,35.80
2022-08-17T12:52:32.810Z,35.80
2022-08-17T12:55:21.159Z,35.90
2022-08-17T12:57:55.661Z,36.00
2022-08-17T13:00:33.653Z,36.10
2022-08-17T13:03:34.278Z,36.20
2022-08-17T13:06:09.471Z,36.40
2022-08-17T13:08:47.948Z,36.50
2022-08-17T13:11:14.752Z,36.60
2022-08-17T13:13:46.167Z,36.80
2022-08-17T13:16:14.165Z,36.90
2022-08-17T13:18:45.821Z,37.00
2022-08-17T13:21:18.880Z,37.00
2022-08-17T13:24:14.571Z,37.10
2022-08-17T13:26:50.692Z,37.10
2022-08-17T13:29:25.689Z,37.20
2022-08-17T13:32:19.920Z,37.20
2022-08-17T13:35:14.951Z,37.20
2022-08-17T13:38:06.844Z,37.30
2022-08-17T13:40:49.209Z,37.40
2022-08-17T13:43:49.495Z,37.50
2022-08-17T13:46:24.287Z,37.60
2022-08-17T13:49:12.118Z,37.60
2022-08-17T13:51:50.151Z,37.70
2022-08-17T13:54:25.547Z,37.80
2022-08-17T13:56:57.729Z,37.90
2022-08-17T13:59:55.171Z,38.00
2022-08-17T14:02:27.625Z,38.30
2022-08-17T14:04:56.649Z,38.60
2022-08-17T14:07:30.320Z,38.90
2022-08-17T14:10:11.208Z,39.20
2022-08-17T14:12:41.415Z,39.50
2022-08-17T14:15:10.667Z,39.90
2022-08-17T14:17:39.059Z,40.20
2022-08-17T14:20:10.559Z,40.30
2022-08-17T14:22:43.911Z,40.40
2022-08-17T14:25:14.989Z,40.60
2022-08-17T14:27:53.208Z,40.90
2022-08-17T14:30:28.888Z,41.50
2022-08-17T14:32:57.909Z,42.30
2022-08-17T14:35:25.257Z,43.10
2022-08-17T14:37:53.207Z,43.90
2022-08-17T14:40:24.453Z,44.70
2022-08-17T14:42:55.045Z,45.30
2022-08-17T14:45:31.510Z,45.90
2022-08-17T14:48:07.459Z,46.40
2022-08-17T14:50:37.417Z,46.90
2022-08-17T14:53:07.822Z,47.50
2022-08-17T14:55:36.142Z,47.90
2022-08-17T14:58:04.148Z,48.30
2022-08-17T15:00:31.722Z,48.70
2022-08-17T15:03:00.536Z,49.00
2022-08-17T15:05:31.894Z,49.20
2022-08-17T15:08:03.486Z,49.30
2022-08-17T15:10:31.753Z,49.60
2022-08-17T15:13:00.148Z,49.80
2022-08-17T15:15:27.794Z,50.00
2022-08-17T15:17:54.891Z,50.20
2022-08-17T15:20:27.992Z,50.30
2022-08-17T15:22:57.202Z,50.40
2022-08-17T15:25:27.492Z,50.40
2022-08-17T15:27:55.815Z,50.40
2022-08-17T15:30:23.816Z,50.30
2022-08-17T15:32:54.987Z,50.30
2022-08-17T15:35:28.370Z,49.90
2022-08-17T15:38:08.022Z,49.30
2022-08-17T15:40:40.468Z,48.50
2022-08-17T15:43:17.562Z,47.50
2022-08-17T15:45:59.626Z,46.50
2022-08-17T15:48:40.625Z,45.60
2022-08-17T15:51:12.181Z,44.70
2022-08-17T15:53:40.907Z,44.10
2022-08-17T15:56:08.128Z,43.80
2022-08-17T15:58:37.854Z,43.60
2022-08-17T16:01:14.698Z,43.50
2022-08-17T16:04:04.273Z,43.50
2022-08-17T16:06:34.645Z,43.40
2022-08-17T16:09:01.610Z,43.30
2022-08-17T16:11:28.503Z,43.00
2022-08-17T16:13:56.018Z,42.70
2022-08-17T16:16:23.728Z,42.30
2022-08-17T16:18:54.570Z,41.90
2022-08-17T16:21:26.866Z,41.40
2022-08-17T16:24:13.599Z,41.00
2022-08-17T16:26:42.714Z,40.50
2022-08-17T16:29:09.798Z,40.20
2022-08-17T16:31:37.686Z,39.70
2022-08-17T16:34:17.411Z,39.50
2022-08-17T16:36:54.836Z,39.20
2022-08-17T16:39:26.627Z,38.90
2022-08-17T16:41:53.935Z,38.60
2022-08-17T16:44:22.593Z,38.40
2022-08-17T16:46:50.386Z,38.20
2022-08-17T16:49:31.539Z,38.00
2022-08-17T16:52:06.340Z,37.90
2022-08-17T16:54:35.515Z,37.70
2022-08-17T16:57:05.216Z,37.50
2022-08-17T16:59:41.969Z,37.30
2022-08-17T17:02:16.390Z,37.20
2022-08-17T17:05:27.604Z,37.00
2022-08-17T17:08:25.579Z,36.80
2022-08-17T17:10:55.907Z,36.60
2022-08-17T17:13:32.893Z,36.30
2022-08-17T17:16:20.794Z,36.10
2022-08-17T17:19:27.679Z,35.90
2022-08-17T17:22:19.483Z,35.60
2022-08-17T17:25:32.511Z,35.40
2022-08-17T17:28:25.198Z,35.30
2022-08-17T17:31:02.056Z,35.10
2022-08-17T17:33:56.033Z,34.90
2022-08-17T17:36:40.271Z,34.80
2022-08-17T17:39:12.336Z,34.60
2022-08-17T17:42:08.691Z,34.50
2022-08-17T17:44:43.424Z,34.40
2022-08-17T17:47:12.714Z,34.30
2022-08-17T17:49:45.959Z,34.30
2022-08-17T17:52:42.255Z,34.20
2022-08-17T17:55:38.568Z,34.10
2022-08-17T17:58:19.573Z,34.00
2022-08-17T18:01:22.505Z,33.80
2022-08-17T18:04:58.282Z,33.70
2022-08-17T18:08:21.711Z,33.50
2022-08-17T18:11:35.276Z,33.30
2022-08-17T18:14:37.635Z,33.20
2022-08-17T18:17:06.395Z,33.00
2022-08-17T18:19:33.557Z,32.90
2022-08-17T18:22:18.788Z,32.80
2022-08-17T18:24:55.828Z,32.70
2022-08-17T18:27:39.082Z,32.60
2022-08-17T18:30:14.800Z,32.40
2022-08-17T18:32:46.391Z,32.30
2022-08-17T18:35:15.831Z,32.20
2022-08-17T18:37:49.694Z,32.00
2022-08-17T18:40:16.884Z,31.90
2022-08-17T18:43:00.530Z,31.80
2022-08-17T18:45:41.016Z,31.70
2022-08-17T18:48:53.492Z,31.70
2022-08-17T18:51:41.493Z,31.60
2022-08-17T18:54:23.954Z,31.40
2022-08-17T18:57:00.163Z,31.30
2022-08-17T18:59:43.642Z,31.20
2022-08-17T19:02:23.193Z,31.10
2022-08-17T19:05:35.278Z,31.00
2022-08-17T19:08:34.433Z,30.90
2022-08-17T19:11:39.187Z,30.80
2022-08-17T19:14:12.482Z,30.60
2022-08-17T19:17:00.189Z,30.60
2022-08-17T19:19:38.890Z,30.50
2022-08-17T19:22:30.783Z,30.40
2022-08-17T19:25:16.105Z,30.30
2022-08-17T19:28:00.739Z,30.20
2022-08-17T19:30:30.450Z,30.10
2022-08-17T19:33:01.056Z,30.00
2022-08-17T19:35:47.076Z,29.90
2022-08-17T19:38:29.283Z,29.80
2022-08-17T19:41:23.301Z,29.80
2022-08-17T19:44:46.422Z,29.70
2022-08-17T19:47:43.187Z,29.60
2022-08-17T19:50:54.235Z,29.60
2022-08-17T19:54:06.428Z,29.50
2022-08-17T19:57:06.715Z,29.40
2022-08-17T20:00:16.183Z,29.40
2022-08-17T20:02:55.883Z,29.40
2022-08-17T20:06:00.930Z,29.30
2022-08-17T20:08:36.750Z,29.30
2022-08-17T20:11:18.566Z,29.30
2022-08-17T20:13:54.577Z,29.30
2022-08-17T20:16:22.554Z,29.30
2022-08-17T20:19:02.819Z,29.30
2022-08-17T20:22:09.752Z,29.30
2022-08-17T20:25:10.795Z,29.30
2022-08-17T20:28:17.325Z,29.30
2022-08-17T20:30:44.428Z,29.20
2022-08-17T20:33:43.802Z,29.20
2022-08-17T20:36:24.040Z,29.20
2022-08-17T20:38:59.745Z,29.20
2022-08-17T20:41:30.729Z,29.10
2022-08-17T20:43:57.544Z,29.10
2022-08-17T20:46:36.595Z,29.10
2022-08-17T20:49:24.267Z,29.10
2022-08-17T20:52:01.217Z,29.00
2022-08-17T20:54:59.805Z,29.00
2022-08-17T20:57:32.662Z,29.00
2022-08-17T21:00:15.159Z,29.00
2022-08-17T21:02:51.133Z,28.90
2022-08-17T21:06:00.730Z,28.90
2022-08-17T21:08:36.095Z,28.90
2022-08-17T21:12:00.015Z,28.80
2022-08-17T21:14:59.927Z,28.80
2022-08-17T21:17:42.195Z,28.80
2022-08-17T21:20:40.220Z,28.80
2022-08-17T21:23:19.307Z,28.70
2022-08-17T21:26:17.478Z,28.80
2022-08-17T21:29:30.349Z,28.70
2022-08-17T21:32:05.262Z,28.70
2022-08-17T21:34:42.555Z,28.70
2022-08-17T21:37:29.447Z,28.70
2022-08-17T21:40:26.232Z,28.70
2022-08-17T21:43:20.037Z,28.60
2022-08-17T21:46:02.314Z,28.60
2022-08-17T21:48:41.452Z,28.60
2022-08-17T21:51:19.571Z,28.60
2022-08-17T21:53:52.228Z,28.60
2022-08-17T21:56:35.507Z,28.50
2022-08-17T21:59:24.371Z,28.50
2022-08-17T22:02:01.207Z,28.50
2022-08-17T22:04:38.725Z,28.50
2022-08-17T22:07:11.610Z,28.40
2022-08-17T22:09:44.907Z,28.40
2022-08-17T22:12:18.625Z,28.40
2022-08-17T22:15:02.415Z,28.30
2022-08-17T22:17:35.356Z,28.20
2022-08-17T22:20:14.448Z,28.20
2022-08-17T22:23:08.928Z,28.00
2022-08-17T22:26:05.850Z,28.00
2022-08-17T22:28:40.884Z,27.80
2022-08-17T22:31:14.436Z,27.60
2022-08-17T22:33:50.533Z,27.30
2022-08-17T22:36:38.740Z,27.00
2022-08-17T22:39:08.410Z,26.70
2022-08-17T22:41:55.739Z,26.40
2022-08-17T22:44:37.828Z,26.10
2022-08-17T22:47:32.175Z,25.80
2022-08-17T22:50:03.718Z,25.50
2022-08-17T22:52:32.060Z,25.30
2022-08-17T22:55:35.910Z,25.10
2022-08-17T22:58:42.499Z,24.90
2022-08-17T23:01:39.735Z,24.80
2022-08-17T23:04:33.154Z,24.60
2022-08-17T23:06:59.974Z,24.50
2022-08-17T23:09:27.008Z,24.30
2022-08-17T23:11:58.499Z,24.10
2022-08-17T23:14:31.646Z,23.80
2022-08-17T23:16:59.687Z,23.60
2022-08-17T23:19:28.509Z,23.30
2022-08-17T23:21:58.030Z,23.10
2022-08-17T23:24:28.771Z,22.80
2022-08-17T23:26:58.109Z,22.60
2022-08-17T23:29:29.346Z,22.50
2022-08-17T23:31:59.836Z,22.30
2022-08-17T23:34:28.088Z,22.20
2022-08-17T23:36:56.279Z,22.10
2022-08-17T23:39:27.328Z,22.00
2022-08-17T23:42:00.171Z,21.90
2022-08-17T23:44:28.888Z,21.90
2022-08-17T23:46:56.173Z,21.80
2022-08-17T23:49:25.169Z,21.80
2022-08-17T23:51:54.735Z,21.80
2022-08-17T23:54:33.639Z,21.80
2022-08-17T23:57:04.935Z,21.80
2022-08-17T23:59:33.853Z,21.80
